Latest Weather Observations for Friendly Beaches

IDT60801

Issued at 10:05 pm EST Friday 1 August 2014 (issued every 30 minutes, with the page automatically refreshed every 10 minutes)

About weather observations | Map of weather stations | Latest weather observations for TAS | Other Formats
Station Details ID: 092114 Name: FRIENDLY BEACHES Lat: -42.00 Lon: 148.28 Height: 55.0 m
Data from the previous 72 hours. | See also: Recent months at Friendly Beaches
Date/Time
EST
Temp
°C
App
Temp
°C
Dew
Point
Rel
Hum
%
Delta-T
°C
Wind Press
QNH
hPa
Press
MSL
hPa
Rain
since 9 am
mm
Dir
 
Spd
km/h
Gust
km/h
Spd
kts
Gust
kts
01/10:00pm 5.7 -2.2 1.1 72 1.8 SW 32 63 17 34 1012.5 1012.6 3.6
01/09:30pm 5.4 -0.6 1.1 74 1.7 SW 22 35 12 19 1011.8 - 3.6
01/09:00pm 5.5 0.0 1.6 76 1.6 SW 20 43 11 23 1011.0 1011.1 3.6
01/08:30pm 5.3 -0.8 2.5 82 1.1 SW 24 37 13 20 1010.2 - 3.6
01/08:00pm 5.3 -0.5 2.3 81 1.2 SW 22 44 12 24 1009.7 1009.8 3.4
01/07:30pm 5.1 -0.4 2.1 81 1.2 WSW 20 41 11 22 1008.6 - 3.4
01/07:00pm 5.0 -0.9 2.0 81 1.2 WSW 22 35 12 19 1007.7 1007.7 3.4
01/06:30pm 5.0 -0.2 2.4 83 1.1 WSW 19 30 10 16 1006.8 - 3.4
01/06:00pm 5.1 -0.2 2.8 85 0.9 WSW 20 35 11 19 1006.4 1006.4 3.4
01/05:30pm 4.9 -0.4 3.1 88 0.7 WSW 20 37 11 20 1005.3 - 3.4
01/05:00pm 4.5 -0.2 3.3 92 0.5 WSW 17 28 9 15 1004.6 1004.6 3.4
01/04:30pm 4.5 -0.7 3.3 92 0.5 SW 20 35 11 19 1004.0 - 3.4
01/04:00pm 4.5 -0.1 3.5 93 0.4 WSW 17 28 9 15 1003.1 1003.1 3.2
01/03:30pm 4.8 -1.1 3.8 93 0.4 SW 24 41 13 22 1002.0 - 1.6
01/03:00pm 5.8 -0.5 3.5 85 1.0 SW 26 52 14 28 1000.7 1000.8 0.2
01/02:30pm 7.6 0.8 3.1 73 1.9 SSW 28 43 15 23 999.4 - 0.0
01/02:00pm 9.1 3.2 2.0 61 3.0 SSW 22 35 12 19 998.2 998.3 0.0
01/01:30pm 9.3 4.6 2.9 64 2.7 SSW 17 30 9 16 997.1 - 0.0
01/01:00pm 9.5 4.2 1.9 59 3.2 SSW 19 32 10 17 996.4 996.5 0.0
01/12:30pm 10.4 5.0 1.2 53 3.8 SSW 19 28 10 15 995.7 - 0.0
01/12:00pm 10.7 5.8 -0.7 45 4.6 SW 15 24 8 13 994.7 994.8 0.0
01/11:30am 11.0 4.3 -1.1 43 4.8 WSW 24 35 13 19 993.9 - 0.0
01/11:00am 9.6 3.9 -0.6 49 4.1 WSW 19 32 10 17 993.5 993.5 0.0
01/10:30am 9.8 5.8 0.7 53 3.7 W 11 17 6 9 993.0 - 0.0
01/10:00am 8.6 3.8 0.3 56 3.4 NW 15 35 8 19 991.6 991.6 0.0
01/09:30am 8.0 2.9 0.5 59 3.0 WNW 17 35 9 19 991.5 - 0.0
01/09:00am 6.8 -0.1 0.0 62 2.7 WNW 26 48 14 26 991.1 991.2 1.6
01/08:30am 6.5 0.8 0.8 67 2.3 WNW 20 37 11 20 991.0 - 1.6
01/08:00am 6.5 0.4 0.6 66 2.4 W 22 41 12 22 990.9 991.0 1.6
01/07:30am 6.7 -0.1 0.6 65 2.4 WNW 26 46 14 25 990.9 - 1.6
01/07:00am 6.5 0.8 0.4 65 2.4 WNW 20 35 11 19 990.9 991.0 1.6
01/06:30am 6.7 0.9 -0.1 62 2.6 WNW 20 35 11 19 990.0 - 1.6
01/06:00am 6.8 0.2 -0.2 61 2.7 WNW 24 48 13 26 989.5 989.5 1.6
01/05:30am 6.8 -0.5 -0.2 61 2.7 WNW 28 43 15 23 990.0 - 1.6
01/05:00am 6.5 0.3 -0.2 62 2.6 WNW 22 44 12 24 990.0 990.0 1.6
01/04:30am 6.5 0.6 -0.5 61 2.7 WNW 20 37 11 20 990.1 - 1.6
01/04:00am 6.9 -0.5 -0.5 59 2.9 WNW 28 50 15 27 990.1 990.1 1.6
01/03:30am 6.6 0.0 -0.6 60 2.8 WNW 24 41 13 22 990.0 - 1.6
01/03:00am 6.4 0.2 -0.3 62 2.6 WNW 22 46 12 25 989.6 989.6 1.6
01/02:30am 6.2 0.0 -0.5 62 2.6 WNW 22 46 12 25 989.5 - 1.6
01/02:00am 6.0 0.2 -0.1 65 2.4 WNW 20 39 11 21 989.0 989.0 1.6
01/01:30am 6.4 -0.2 -0.1 63 2.5 WNW 24 41 13 22 989.0 - 1.6
01/01:00am 6.5 -0.5 -0.2 62 2.6 WNW 26 52 14 28 988.9 988.9 1.6
01/12:30am 6.8 -0.1 0.0 62 2.6 WNW 26 46 14 25 988.4 - 1.6
01/12:00am 7.2 0.2 -0.3 59 3.0 WNW 26 46 14 25 987.3 987.3 1.6
 
Date/Time
EST
Temp
°C
App
Temp
°C
Dew
Point
Rel
Hum
%
Delta-T
°C
Wind Press
QNH
hPa
Press
MSL
hPa
Rain
since 9 am
mm
Dir
 
Spd
km/h
Gust
km/h
Spd
kts
Gust
kts
31/11:30pm 7.6 -0.5 -0.4 57 3.1 WNW 32 57 17 31 987.5 - 1.6
31/11:00pm 7.5 -0.2 -0.2 58 3.1 NW 30 50 16 27 986.4 986.4 1.6
31/10:30pm 7.7 0.2 0.9 62 2.7 NW 30 54 16 29 986.6 - 1.6
31/10:00pm 8.3 0.9 -0.7 53 3.6 NW 28 52 15 28 986.1 986.1 1.6
31/09:30pm 8.7 1.7 -0.6 52 3.6 NW 26 46 14 25 986.0 - 1.6
31/09:00pm 9.1 1.7 -0.5 51 3.8 NW 28 59 15 32 986.3 986.3 1.6
31/08:30pm 9.4 1.6 -0.5 50 3.9 NW 30 48 16 26 985.7 - 1.6
31/08:00pm 9.3 2.0 -0.3 51 3.9 NW 28 54 15 29 985.4 985.4 1.6
31/07:30pm 9.6 1.4 0.2 52 3.8 NW 33 65 18 35 985.0 - 1.6
31/07:00pm 9.9 1.7 0.3 51 4.0 NW 33 57 18 31 984.2 984.2 1.6
31/06:30pm 10.0 2.0 0.6 52 3.8 WNW 32 65 17 35 984.2 - 1.6
31/06:00pm 9.5 2.9 1.9 59 3.2 NW 26 50 14 27 983.6 983.6 1.6
31/05:30pm 9.2 2.1 3.6 68 2.4 NW 30 50 16 27 983.9 - 1.6
31/05:00pm 9.4 2.9 4.6 72 2.2 WNW 28 52 15 28 983.4 983.4 1.6
31/04:30pm 9.3 3.2 6.7 84 1.2 W 28 46 15 25 983.5 - 1.6
31/04:00pm 9.7 6.2 7.3 85 1.2 W 15 20 8 11 982.4 982.5 1.2
31/03:30pm 9.1 6.4 7.2 88 0.9 W 11 24 6 13 981.8 - 1.2
31/03:00pm 12.4 5.4 6.9 69 2.7 WNW 33 59 18 32 982.0 982.1 0.4
31/02:30pm 13.7 9.1 8.1 69 2.8 NNW 22 35 12 19 980.6 - 0.0
31/02:00pm 14.4 8.5 7.7 64 3.4 NNW 28 63 15 34 980.3 980.4 0.0
31/01:30pm 15.2 8.4 6.7 57 4.2 NNW 32 52 17 28 980.3 - 0.0
31/01:00pm 15.3 8.4 7.1 58 4.1 NNW 33 63 18 34 980.7 980.8 0.0
31/12:30pm 15.1 7.3 6.7 57 4.1 NNW 37 80 20 43 982.1 - 0.0
31/12:00pm 15.6 8.5 6.6 55 4.5 NW 33 67 18 36 982.6 982.7 0.0
31/11:30am 15.5 8.8 7.3 58 4.1 NNW 32 61 17 33 983.7 - 0.0
31/11:00am 15.1 8.3 7.6 61 3.8 NW 33 61 18 33 984.6 984.6 0.0
31/10:30am 15.0 8.7 7.5 61 3.7 NW 30 57 16 31 985.1 - 0.0
31/10:00am 14.7 8.3 7.0 60 3.8 NW 30 54 16 29 985.9 985.9 0.0
31/09:30am 13.9 9.6 7.9 67 3.0 NNW 20 41 11 22 986.5 - 0.0
31/09:00am 13.2 7.9 8.3 72 2.5 NNW 26 41 14 22 987.7 987.7 5.8
31/08:30am 12.8 8.0 8.9 77 2.0 NW 24 44 13 24 988.4 - 5.8
31/08:00am 11.5 9.4 9.8 89 0.9 NNW 11 20 6 11 988.5 988.5 5.8
31/07:30am 12.0 9.8 9.2 83 1.4 NNW 11 22 6 12 989.5 - 5.2
31/07:00am 10.8 9.2 8.7 87 1.0 NNW 7 9 4 5 989.7 989.7 5.0
31/06:30am 11.5 7.0 8.7 83 1.4 W 22 44 12 24 989.7 - 5.0
31/06:00am 11.2 7.5 9.6 90 0.8 WNW 19 28 10 15 989.9 989.9 5.0
31/05:30am 11.4 5.9 9.3 87 1.1 NW 28 44 15 24 990.1 - 3.0
31/05:00am 13.6 6.9 7.4 66 3.1 NW 32 56 17 30 989.8 989.8 1.4
31/04:30am 13.7 8.0 8.3 70 2.7 NW 28 52 15 28 990.4 - 1.2
31/04:00am 13.3 9.3 8.2 71 2.6 NW 19 44 10 24 990.3 990.3 1.2
31/03:30am 13.0 8.3 9.3 78 1.9 NW 24 41 13 22 990.9 - 1.2
31/03:00am 13.1 8.8 9.5 79 1.9 NW 22 44 12 24 991.1 991.2 1.2
31/02:30am 12.6 7.5 9.2 80 1.7 NNW 26 41 14 22 990.9 - 1.0
31/02:00am 12.7 8.7 9.0 78 1.9 NNW 20 39 11 21 991.5 991.6 0.8
31/01:30am 12.0 7.7 9.2 83 1.4 NNW 22 33 12 18 991.6 - 0.6
31/01:00am 13.6 8.2 8.0 69 2.8 NW 26 50 14 27 992.4 992.5 0.0
31/12:30am 14.3 7.0 7.1 62 3.5 WNW 35 63 19 34 992.1 - 0.0
31/12:00am 15.4 6.6 5.6 52 4.7 NW 41 70 22 38 991.9 992.0 0.0
 
Date/Time
EST
Temp
°C
App
Temp
°C
Dew
Point
Rel
Hum
%
Delta-T
°C
Wind Press
QNH
hPa
Press
MSL
hPa
Rain
since 9 am
mm
Dir
 
Spd
km/h
Gust
km/h
Spd
kts
Gust
kts
30/11:30pm 15.4 5.9 5.0 50 4.9 WNW 44 91 24 49 992.1 - 0.0
30/11:00pm 14.9 7.9 6.2 56 4.2 WNW 32 57 17 31 992.4 992.5 0.0
30/10:30pm 15.1 8.4 5.6 53 4.5 WNW 30 54 16 29 992.8 - 0.0
30/10:00pm 15.0 7.0 5.8 54 4.5 WNW 37 69 20 37 992.5 992.6 0.0
30/09:30pm 14.7 7.5 6.0 56 4.2 WNW 33 63 18 34 993.0 - 0.0
30/09:00pm 14.8 6.0 7.4 61 3.7 WNW 43 82 23 44 993.3 993.4 0.0
30/08:30pm 15.1 7.6 6.1 55 4.3 WNW 35 70 19 38 993.2 - 0.0
30/08:00pm 14.8 7.2 5.9 55 4.3 WNW 35 63 19 34 993.7 993.8 0.0
30/07:30pm 14.6 6.7 6.2 57 4.0 WNW 37 65 20 35 994.2 - 0.0
30/07:00pm 14.5 5.9 6.3 58 4.0 WNW 41 69 22 37 994.0 994.1 0.0
30/06:30pm 14.5 6.9 5.8 56 4.2 WNW 35 69 19 37 994.1 - 0.0
30/06:00pm 14.8 5.7 6.6 58 4.0 WNW 44 98 24 53 993.1 993.2 0.0
30/05:30pm 14.8 6.6 6.6 58 4.0 WNW 39 74 21 40 993.2 - 0.0
30/05:00pm 14.7 6.2 6.8 59 3.9 WNW 41 72 22 39 993.3 993.4 0.0
30/04:30pm 14.7 7.8 7.3 61 3.6 WNW 33 56 18 30 993.5 - 0.0
30/04:00pm 14.7 7.7 7.0 60 3.8 WNW 33 57 18 31 993.6 993.7 0.0
30/03:30pm 14.7 7.5 7.5 62 3.6 WNW 35 69 19 37 993.6 - 0.0
30/03:00pm 14.9 6.7 6.5 57 4.1 WNW 39 70 21 38 993.4 993.5 0.0
30/02:30pm 15.3 5.3 6.3 55 4.4 WNW 48 93 26 50 993.2 - 0.0
30/02:00pm 15.2 6.6 6.5 56 4.3 WNW 41 76 22 41 993.3 993.4 0.0
30/01:30pm 14.8 6.1 5.9 55 4.3 WNW 41 76 22 41 993.6 - 0.0
30/01:00pm 15.3 5.9 5.5 52 4.7 WNW 44 72 24 39 994.0 994.1 0.0
30/12:30pm 15.3 6.0 5.8 53 4.6 WNW 44 82 24 44 994.5 - 0.0
30/12:00pm 14.9 6.6 6.0 55 4.3 WNW 39 76 21 41 994.9 995.0 0.0
30/11:30am 15.1 6.8 5.9 54 4.4 WNW 39 67 21 36 995.7 - 0.0
30/11:00am 14.7 6.2 5.2 53 4.5 WNW 39 78 21 42 996.0 996.1 0.0
30/10:30am 14.6 6.8 5.1 53 4.5 WNW 35 63 19 34 996.1 - 0.0
30/10:00am 13.8 5.6 4.9 55 4.2 WNW 37 69 20 37 996.7 996.8 0.0
30/09:30am 13.2 5.7 4.4 55 4.0 WNW 33 59 18 32 997.0 - 0.0
30/09:00am 12.6 5.0 4.1 56 3.9 WNW 33 59 18 32 997.3 997.4 4.4
30/08:30am 12.1 4.6 3.3 55 3.9 WNW 32 61 17 33 997.2 - 4.4
30/08:00am 11.5 4.6 2.3 53 4.0 WNW 28 52 15 28 997.3 997.4 4.4
30/07:30am 10.5 6.0 1.9 55 3.6 WNW 15 32 8 17 998.1 - 4.4
30/07:00am 10.5 5.2 1.9 55 3.7 WNW 19 41 10 22 998.2 998.3 4.4
30/06:30am 10.3 5.1 2.2 57 3.4 WNW 19 33 10 18 998.3 - 4.4
30/06:00am 10.6 4.4 2.4 57 3.5 WNW 24 48 13 26 998.1 998.2 4.4
30/05:30am 10.7 4.5 2.0 55 3.7 WNW 24 41 13 22 997.8 - 4.4
30/05:00am 10.9 4.7 2.0 54 3.8 WNW 24 44 13 24 997.6 997.7 4.4
30/04:30am 11.4 5.1 1.4 50 4.2 WNW 24 48 13 26 997.2 - 4.4
30/04:00am 11.4 5.2 1.9 52 4.1 WNW 24 44 13 24 996.5 996.6 4.4
30/03:30am 11.6 5.1 2.6 54 3.9 WNW 26 52 14 28 995.7 - 4.4
30/03:00am 11.3 6.0 3.1 57 3.6 WNW 20 41 11 22 995.3 995.4 4.4
30/02:30am 11.3 5.3 3.3 58 3.5 WNW 24 39 13 21 994.9 - 4.4
30/02:00am 11.3 5.7 3.6 59 3.4 WNW 22 44 12 24 994.1 994.2 4.4
30/01:30am 11.4 4.9 4.6 63 3.1 WNW 28 56 15 30 993.9 - 4.4
30/01:00am 11.4 4.8 4.4 62 3.2 WNW 28 56 15 30 993.2 993.3 4.4
30/12:30am 11.5 6.0 4.0 60 3.4 NW 22 35 12 19 992.9 - 4.4
30/12:00am 11.8 5.8 3.6 57 3.7 WNW 24 44 13 24 992.7 992.8 4.4
 
Date/Time
EST
Temp
°C
App
Temp
°C
Dew
Point
Rel
Hum
%
Delta-T
°C
Wind Press
QNH
hPa
Press
MSL
hPa
Rain
since 9 am
mm
Dir
 
Spd
km/h
Gust
km/h
Spd
kts
Gust
kts
29/11:30pm 11.9 5.2 3.9 58 3.6 WNW 28 57 15 31 992.7 - 4.4
29/11:00pm 12.1 6.6 4.1 58 3.6 WNW 22 39 12 21 992.4 992.5 4.4
29/10:30pm 12.5 5.4 3.7 55 3.9 WNW 30 59 16 32 991.9 - 4.4

Other Formats:

Comma delimited format used in spreadsheet applications
http://www.bom.gov.au/fwo/IDT60801/IDT60801.94987.axf

JavaScript Object Notation format (JSON) in row-major order
http://www.bom.gov.au/fwo/IDT60801/IDT60801.94987.json